createdAt,value
2023-04-18T00:00:03.493Z,21.53
2023-04-18T00:01:03.550Z,21.53
2023-04-18T00:02:03.715Z,21.53
2023-04-18T00:03:04.709Z,21.52
2023-04-18T00:04:03.860Z,21.53
2023-04-18T00:05:03.815Z,21.52
2023-04-18T00:06:03.722Z,21.52
2023-04-18T00:07:03.730Z,21.53
2023-04-18T00:08:03.777Z,21.52
2023-04-18T00:09:03.835Z,21.52
2023-04-18T00:10:03.854Z,21.52
2023-04-18T00:11:03.881Z,21.52
2023-04-18T00:12:03.925Z,21.53
2023-04-18T00:13:03.962Z,21.52
2023-04-18T00:14:03.990Z,21.52
2023-04-18T00:15:04.079Z,21.52
2023-04-18T00:16:04.075Z,21.51
2023-04-18T00:17:04.191Z,21.52
2023-04-18T00:18:04.211Z,21.51
2023-04-18T00:19:04.166Z,21.52
2023-04-18T00:20:04.232Z,21.51
2023-04-18T00:21:04.258Z,21.51
2023-04-18T00:22:04.294Z,21.51
2023-04-18T00:23:04.337Z,21.51
2023-04-18T00:24:04.357Z,21.50
2023-04-18T00:25:04.407Z,21.50
2023-04-18T00:26:04.407Z,21.50
2023-04-18T00:27:04.468Z,21.50
2023-04-18T00:28:04.492Z,21.50
2023-04-18T00:29:04.556Z,21.51
2023-04-18T00:30:04.557Z,21.50
2023-04-18T00:31:04.679Z,21.50
2023-04-18T00:32:04.641Z,21.50
2023-04-18T00:33:04.731Z,21.50
2023-04-18T00:34:04.716Z,21.50
2023-04-18T00:35:04.780Z,21.50
2023-04-18T00:36:04.818Z,21.50
2023-04-18T00:37:04.839Z,21.50
2023-04-18T00:38:04.909Z,21.49
2023-04-18T00:39:04.945Z,21.49
2023-04-18T00:40:04.991Z,21.49
2023-04-18T00:41:05.014Z,21.49
2023-04-18T00:42:05.065Z,21.49
2023-04-18T00:43:05.119Z,21.49
2023-04-18T00:44:05.121Z,21.48
2023-04-18T00:45:05.162Z,21.49
2023-04-18T00:46:05.285Z,21.49
2023-04-18T00:47:05.217Z,21.49
2023-04-18T00:48:05.330Z,21.48
2023-04-18T00:49:05.306Z,21.49
2023-04-18T00:50:05.361Z,21.48
2023-04-18T00:51:05.387Z,21.48
2023-04-18T00:52:05.493Z,21.48
2023-04-18T00:53:05.475Z,21.48
2023-04-18T00:54:05.520Z,21.48
2023-04-18T00:55:05.557Z,21.47
2023-04-18T00:56:05.594Z,21.48
2023-04-18T00:57:05.644Z,21.48
2023-04-18T00:58:05.673Z,21.47
2023-04-18T00:59:05.677Z,21.48
2023-04-18T01:00:05.744Z,21.48
2023-04-18T01:01:05.844Z,21.48
2023-04-18T01:02:05.977Z,21.47
2023-04-18T01:03:06.009Z,21.47
2023-04-18T01:04:06.014Z,21.47
2023-04-18T01:05:05.973Z,21.47
2023-04-18T01:06:06.019Z,21.47
2023-04-18T01:07:06.060Z,21.47
2023-04-18T01:08:06.087Z,21.46
2023-04-18T01:09:06.130Z,21.46
2023-04-18T01:10:06.182Z,21.47
2023-04-18T01:11:06.213Z,21.47
2023-04-18T01:12:06.312Z,21.46
2023-04-18T01:13:06.319Z,21.45
2023-04-18T01:14:06.343Z,21.45
2023-04-18T01:15:06.396Z,21.45
2023-04-18T01:16:06.467Z,21.45
2023-04-18T01:17:06.461Z,21.45
2023-04-18T01:18:06.560Z,21.45
2023-04-18T01:19:06.593Z,21.45
2023-04-18T01:20:06.656Z,21.45
2023-04-18T01:21:06.655Z,21.45
2023-04-18T01:22:06.698Z,21.45
2023-04-18T01:23:06.772Z,21.44
2023-04-18T01:24:06.822Z,21.44
2023-04-18T01:25:06.878Z,21.45
2023-04-18T01:26:06.899Z,21.45
2023-04-18T01:27:06.970Z,21.44
2023-04-18T01:28:06.995Z,21.44
2023-04-18T01:29:07.062Z,21.43
2023-04-18T01:30:07.114Z,21.44
2023-04-18T01:31:07.244Z,21.44
2023-04-18T01:32:07.189Z,21.43
2023-04-18T01:33:07.228Z,21.44
2023-04-18T01:34:07.297Z,21.44
2023-04-18T01:35:07.349Z,21.44
2023-04-18T01:36:07.367Z,21.44
2023-04-18T01:37:07.390Z,21.43
2023-04-18T01:38:07.455Z,21.43
2023-04-18T01:39:07.506Z,21.43
2023-04-18T01:40:07.528Z,21.43
2023-04-18T01:41:07.570Z,21.44
2023-04-18T01:42:07.588Z,21.43
2023-04-18T01:43:07.655Z,21.43
2023-04-18T01:44:07.727Z,21.43
2023-04-18T01:45:07.743Z,21.42
2023-04-18T01:46:07.806Z,21.43
2023-04-18T01:47:07.836Z,21.43
2023-04-18T01:48:07.908Z,21.42
2023-04-18T01:49:07.931Z,21.43
2023-04-18T01:50:07.991Z,21.42
2023-04-18T01:51:08.010Z,21.42
2023-04-18T01:52:08.054Z,21.43
2023-04-18T01:53:08.095Z,21.42
2023-04-18T01:54:08.145Z,21.42
2023-04-18T01:55:08.191Z,21.42
2023-04-18T01:56:08.266Z,21.42
2023-04-18T01:57:08.286Z,21.41
2023-04-18T01:58:08.356Z,21.41
2023-04-18T01:59:08.360Z,21.42
2023-04-18T02:00:08.434Z,21.42
2023-04-18T02:01:08.656Z,21.42
2023-04-18T02:02:08.588Z,21.42
2023-04-18T02:03:08.693Z,21.41
2023-04-18T02:04:08.690Z,21.41
2023-04-18T02:05:08.628Z,21.40
2023-04-18T02:06:08.721Z,21.41
2023-04-18T02:07:08.722Z,21.41
2023-04-18T02:08:08.794Z,21.41
2023-04-18T02:09:08.815Z,21.41
2023-04-18T02:10:08.917Z,21.41
2023-04-18T02:11:08.935Z,21.41
2023-04-18T02:12:08.956Z,21.40
2023-04-18T02:13:08.991Z,21.41
2023-04-18T02:14:09.032Z,21.40
2023-04-18T02:15:09.099Z,21.40
2023-04-18T02:16:09.153Z,21.41
2023-04-18T02:17:09.198Z,21.41
2023-04-18T02:18:09.240Z,21.40
2023-04-18T02:19:09.292Z,21.40
2023-04-18T02:20:09.315Z,21.40
2023-04-18T02:21:09.392Z,21.39
2023-04-18T02:22:09.428Z,21.40
2023-04-18T02:23:09.492Z,21.40
2023-04-18T02:24:09.527Z,21.40
2023-04-18T02:25:09.583Z,21.39
2023-04-18T02:26:09.610Z,21.39
2023-04-18T02:27:09.682Z,21.39
2023-04-18T02:28:09.711Z,21.39
2023-04-18T02:29:09.757Z,21.39
2023-04-18T02:30:09.849Z,21.39
2023-04-18T02:31:09.871Z,21.39
2023-04-18T02:32:09.965Z,21.39
2023-04-18T02:33:09.957Z,21.38
2023-04-18T02:34:09.996Z,21.39
2023-04-18T02:35:10.053Z,21.38
2023-04-18T02:36:10.090Z,21.38
2023-04-18T02:37:10.161Z,21.39
2023-04-18T02:38:10.155Z,21.39
2023-04-18T02:39:10.233Z,21.38
2023-04-18T02:40:10.314Z,21.38
2023-04-18T02:41:10.331Z,21.38
2023-04-18T02:42:10.372Z,21.38
2023-04-18T02:43:10.420Z,21.38
2023-04-18T02:44:10.491Z,21.38
2023-04-18T02:45:10.608Z,21.38
2023-04-18T02:46:10.616Z,21.38
2023-04-18T02:47:10.640Z,21.38
2023-04-18T02:48:10.704Z,21.37
2023-04-18T02:49:10.739Z,21.38
2023-04-18T02:50:10.797Z,21.37
2023-04-18T02:51:10.828Z,21.37
2023-04-18T02:52:10.858Z,21.37
2023-04-18T02:53:10.886Z,21.38
2023-04-18T02:54:11.087Z,21.37
2023-04-18T02:55:11.103Z,21.37
2023-04-18T02:56:11.048Z,21.37
2023-04-18T02:57:11.107Z,21.37
2023-04-18T02:58:11.168Z,21.37
2023-04-18T02:59:11.204Z,21.37
2023-04-18T03:00:11.295Z,21.36
2023-04-18T03:01:11.387Z,21.36
2023-04-18T03:02:11.435Z,21.36
2023-04-18T03:03:11.517Z,21.36
2023-04-18T03:04:11.565Z,21.36
2023-04-18T03:05:11.566Z,21.36
2023-04-18T03:06:11.583Z,21.36
2023-04-18T03:07:11.664Z,21.36
2023-04-18T03:08:11.679Z,21.35
2023-04-18T03:09:11.725Z,21.36
2023-04-18T03:10:11.796Z,21.35
2023-04-18T03:11:11.878Z,21.36
2023-04-18T03:12:11.867Z,21.36
2023-04-18T03:13:11.927Z,21.35
2023-04-18T03:14:12.125Z,21.36
2023-04-18T03:15:12.049Z,21.35
2023-04-18T03:16:13.028Z,21.36
2023-04-18T03:17:12.107Z,21.35
2023-04-18T03:18:12.147Z,21.36
2023-04-18T03:19:12.234Z,21.35
2023-04-18T03:20:12.259Z,21.35
2023-04-18T03:21:12.301Z,21.35
2023-04-18T03:22:12.351Z,21.34
2023-04-18T03:23:12.379Z,21.35
2023-04-18T03:24:12.474Z,21.35
2023-04-18T03:25:12.523Z,21.35
2023-04-18T03:26:12.563Z,21.35
2023-04-18T03:27:12.581Z,21.35
2023-04-18T03:28:12.654Z,21.35
2023-04-18T03:29:12.707Z,21.35
2023-04-18T03:30:12.762Z,21.34
2023-04-18T03:31:12.836Z,21.34
2023-04-18T03:32:12.902Z,21.34
2023-04-18T03:33:12.884Z,21.33
2023-04-18T03:34:13.125Z,21.34
2023-04-18T03:35:13.001Z,21.33
2023-04-18T03:36:13.051Z,21.33
2023-04-18T03:37:13.102Z,21.34
2023-04-18T03:38:13.173Z,21.34
2023-04-18T03:39:13.191Z,21.35
2023-04-18T03:40:13.268Z,21.33
2023-04-18T03:41:13.294Z,21.34
2023-04-18T03:42:13.342Z,21.34
2023-04-18T03:43:13.367Z,21.33
2023-04-18T03:45:13.529Z,21.33
2023-04-18T03:46:13.580Z,21.32
2023-04-18T03:47:13.568Z,21.32
2023-04-18T03:48:13.726Z,21.33
2023-04-18T03:49:13.690Z,21.32
2023-04-18T03:50:13.737Z,21.33
2023-04-18T03:51:13.816Z,21.33
2023-04-18T03:52:13.896Z,21.33
2023-04-18T03:53:13.930Z,21.32
2023-04-18T03:54:14.119Z,21.33
2023-04-18T03:55:14.041Z,21.32
2023-04-18T03:56:14.082Z,21.32
2023-04-18T03:57:14.145Z,21.33
2023-04-18T03:58:14.983Z,21.32
2023-04-18T03:59:14.257Z,21.32
2023-04-18T04:00:14.300Z,21.32
2023-04-18T04:01:14.365Z,21.32
2023-04-18T04:02:14.497Z,21.32
2023-04-18T04:03:14.533Z,21.31
2023-04-18T04:04:14.954Z,21.32
2023-04-18T04:05:14.554Z,21.31
2023-04-18T04:06:14.651Z,21.32
2023-04-18T04:07:14.680Z,21.31
2023-04-18T04:08:14.760Z,21.31
2023-04-18T04:09:14.803Z,21.30
2023-04-18T04:10:14.876Z,21.31
2023-04-18T04:11:14.898Z,21.31
2023-04-18T04:12:14.964Z,21.31
2023-04-18T04:13:15.058Z,21.31
2023-04-18T04:14:15.307Z,21.30
2023-04-18T04:15:15.163Z,21.31
2023-04-18T04:16:15.182Z,21.30
2023-04-18T04:17:15.221Z,21.30
2023-04-18T04:18:15.241Z,21.30
2023-04-18T04:19:15.334Z,21.30
2023-04-18T04:20:15.400Z,21.30
2023-04-18T04:21:15.434Z,21.30
2023-04-18T04:22:15.493Z,21.30
2023-04-18T04:23:15.553Z,21.30
2023-04-18T04:24:15.876Z,21.29
2023-04-18T04:25:15.663Z,21.30
2023-04-18T04:26:15.680Z,21.29
2023-04-18T04:27:15.754Z,21.29
2023-04-18T04:28:15.795Z,21.29
2023-04-18T04:29:15.866Z,21.29
2023-04-18T04:30:15.901Z,21.29
2023-04-18T04:31:15.989Z,21.29
2023-04-18T04:32:16.020Z,21.28
2023-04-18T04:33:16.098Z,21.28
2023-04-18T04:34:16.281Z,21.29
2023-04-18T04:35:16.180Z,21.28
2023-04-18T04:36:18.642Z,21.29
2023-04-18T04:37:16.369Z,21.29
2023-04-18T04:38:16.292Z,21.29
2023-04-18T04:39:16.260Z,21.29
2023-04-18T04:40:16.285Z,21.28
2023-04-18T04:41:16.264Z,21.28
2023-04-18T04:42:16.230Z,21.29
2023-04-18T04:43:16.242Z,21.29
2023-04-18T04:44:16.472Z,21.28
2023-04-18T04:45:16.246Z,21.28
2023-04-18T04:46:16.290Z,21.28
2023-04-18T04:47:16.239Z,21.28
2023-04-18T04:48:16.242Z,21.28
2023-04-18T04:49:16.222Z,21.28
2023-04-18T04:50:16.237Z,21.27
2023-04-18T04:51:16.190Z,21.27
2023-04-18T04:52:16.239Z,21.27
2023-04-18T04:53:16.212Z,21.27
2023-04-18T04:54:16.460Z,21.27
2023-04-18T04:55:16.221Z,21.27
2023-04-18T04:56:16.191Z,21.27
2023-04-18T04:57:16.184Z,21.26
2023-04-18T04:58:16.186Z,21.27
2023-04-18T04:59:16.216Z,21.27
2023-04-18T05:00:16.193Z,21.27
2023-04-18T05:01:16.205Z,21.27
2023-04-18T05:02:16.201Z,21.27
2023-04-18T05:03:16.285Z,21.27
2023-04-18T05:04:16.477Z,21.27
2023-04-18T05:05:16.183Z,21.27
2023-04-18T05:06:16.154Z,21.28
2023-04-18T05:07:16.163Z,21.28
2023-04-18T05:08:16.162Z,21.28
2023-04-18T05:09:16.160Z,21.28
2023-04-18T05:10:16.199Z,21.28
2023-04-18T05:11:16.155Z,21.28
2023-04-18T05:12:16.168Z,21.28
2023-04-18T05:13:16.160Z,21.27
2023-04-18T05:14:16.328Z,21.29
2023-04-18T05:15:16.171Z,21.28
2023-04-18T05:16:16.171Z,21.28
2023-04-18T05:17:16.151Z,21.28
2023-04-18T05:18:16.229Z,21.28
2023-04-18T05:19:16.251Z,21.29
2023-04-18T05:20:16.347Z,21.29
2023-04-18T05:21:16.359Z,21.28
2023-04-18T05:22:16.450Z,21.29
2023-04-18T05:23:16.519Z,21.28
2023-04-18T05:24:16.812Z,21.29
2023-04-18T05:25:16.623Z,21.29
2023-04-18T05:26:16.630Z,21.29
2023-04-18T05:27:18.182Z,21.29
2023-04-18T05:28:16.799Z,21.29
2023-04-18T05:29:16.822Z,21.29
2023-04-18T05:30:17.041Z,21.29
2023-04-18T05:31:16.982Z,21.30
2023-04-18T05:32:16.979Z,21.29
2023-04-18T05:33:17.043Z,21.29
2023-04-18T05:34:17.118Z,21.28
2023-04-18T05:35:17.127Z,21.28
2023-04-18T05:36:17.223Z,21.25
2023-04-18T05:37:17.268Z,21.26
2023-04-18T05:38:17.360Z,21.30
2023-04-18T05:39:17.367Z,21.33
2023-04-18T05:40:17.547Z,21.37
2023-04-18T05:41:17.482Z,21.38
2023-04-18T05:42:17.542Z,21.40
2023-04-18T05:43:17.590Z,21.42
2023-04-18T05:44:17.855Z,21.44
2023-04-18T05:45:18.042Z,21.47
2023-04-18T05:46:17.725Z,21.51
2023-04-18T05:47:17.780Z,21.52
2023-04-18T05:48:17.804Z,21.55
2023-04-18T05:49:17.825Z,21.58
2023-04-18T05:50:17.925Z,21.61
2023-04-18T05:51:17.905Z,21.64
2023-04-18T05:52:17.944Z,21.66
2023-04-18T05:53:25.037Z,21.69
2023-04-18T05:54:17.988Z,21.71
2023-04-18T05:55:17.985Z,21.74
2023-04-18T05:56:18.029Z,21.77
2023-04-18T05:57:17.968Z,21.79
2023-04-18T05:58:17.957Z,21.81
2023-04-18T05:59:17.943Z,21.84
2023-04-18T06:00:17.966Z,21.88
2023-04-18T06:01:17.929Z,21.90
2023-04-18T06:02:17.964Z,21.92
2023-04-18T06:03:18.263Z,21.95
2023-04-18T06:04:18.025Z,21.98
2023-04-18T06:05:18.156Z,22.00
2023-04-18T06:06:17.874Z,22.03
2023-04-18T06:07:17.865Z,22.05
2023-04-18T06:08:17.839Z,22.08
2023-04-18T06:09:17.843Z,22.10
2023-04-18T06:10:17.830Z,22.11
2023-04-18T06:11:17.804Z,22.12
2023-04-18T06:12:17.801Z,22.15
2023-04-18T06:13:17.781Z,22.16
2023-04-18T06:14:17.805Z,22.17
2023-04-18T06:15:17.743Z,22.18
2023-04-18T06:16:17.796Z,22.20
2023-04-18T06:17:17.726Z,22.21
2023-04-18T06:18:17.722Z,22.22
2023-04-18T06:19:17.687Z,22.24
2023-04-18T06:20:18.092Z,22.25
2023-04-18T06:21:17.683Z,22.27
2023-04-18T06:22:17.672Z,22.29
2023-04-18T06:23:17.640Z,22.32
2023-04-18T06:24:17.650Z,22.33
2023-04-18T06:25:17.704Z,22.35
2023-04-18T06:26:17.611Z,22.36
2023-04-18T06:27:30.136Z,22.37
2023-04-18T06:28:18.664Z,22.39
2023-04-18T06:29:17.561Z,22.39
2023-04-18T06:30:17.539Z,22.42
2023-04-18T06:31:17.560Z,22.44
2023-04-18T06:32:17.497Z,22.46
2023-04-18T06:33:17.524Z,22.46
2023-04-18T06:34:17.483Z,22.46
2023-04-18T06:35:17.468Z,22.47
2023-04-18T06:36:17.483Z,22.46
2023-04-18T06:37:17.538Z,22.46
2023-04-18T06:38:17.606Z,22.47
2023-04-18T06:39:17.673Z,22.47
2023-04-18T06:40:17.730Z,22.48
2023-04-18T06:41:17.749Z,22.48
2023-04-18T06:42:18.711Z,22.48
2023-04-18T06:43:17.864Z,22.48
2023-04-18T06:44:17.948Z,22.48
2023-04-18T06:45:18.074Z,22.47
2023-04-18T06:46:18.071Z,22.44
2023-04-18T06:47:18.067Z,22.43
2023-04-18T06:48:18.154Z,22.44
2023-04-18T06:49:18.128Z,22.47
2023-04-18T06:50:18.213Z,22.47
2023-04-18T06:51:18.264Z,22.49
2023-04-18T06:52:18.290Z,22.50
2023-04-18T06:53:18.344Z,22.49
2023-04-18T06:54:18.467Z,22.52
2023-04-18T06:55:18.459Z,22.52
2023-04-18T06:56:18.493Z,22.52
2023-04-18T06:57:18.549Z,22.52
2023-04-18T06:58:18.566Z,22.55
2023-04-18T06:59:18.606Z,22.57
2023-04-18T07:00:18.653Z,22.59
2023-04-18T07:01:18.724Z,22.62
2023-04-18T07:02:18.860Z,22.66
2023-04-18T07:03:18.922Z,22.69
2023-04-18T07:04:19.141Z,22.72
2023-04-18T07:05:18.802Z,22.74
2023-04-18T07:06:18.825Z,22.78
2023-04-18T07:07:18.884Z,22.80
2023-04-18T07:08:18.863Z,22.83
2023-04-18T07:09:18.940Z,22.85
2023-04-18T07:10:18.936Z,22.87
2023-04-18T07:11:18.934Z,22.89
2023-04-18T07:12:18.920Z,22.91
2023-04-18T07:13:19.680Z,22.93
2023-04-18T07:14:18.966Z,22.94
2023-04-18T07:15:18.976Z,22.97
2023-04-18T07:16:19.144Z,22.98
2023-04-18T07:17:19.054Z,23.00
2023-04-18T07:18:30.317Z,23.02
2023-04-18T07:19:19.973Z,23.03
2023-04-18T07:20:18.973Z,23.04
2023-04-18T07:21:18.926Z,23.05
2023-04-18T07:22:18.860Z,23.05
2023-04-18T07:23:18.857Z,23.05
2023-04-18T07:24:18.830Z,23.05
2023-04-18T07:25:19.078Z,23.04
2023-04-18T07:26:18.756Z,23.05
2023-04-18T07:27:18.730Z,23.05
2023-04-18T07:28:18.701Z,23.07
2023-04-18T07:29:18.672Z,23.08
2023-04-18T07:30:18.635Z,23.09
2023-04-18T07:31:18.649Z,23.09
2023-04-18T07:32:18.694Z,23.10
2023-04-18T07:33:18.561Z,23.12
2023-04-18T07:34:18.509Z,23.13
2023-04-18T07:35:18.511Z,23.16
2023-04-18T07:36:18.468Z,23.17
2023-04-18T07:37:18.445Z,23.19
2023-04-18T07:38:18.447Z,23.20
2023-04-18T07:39:18.435Z,23.20
2023-04-18T07:40:18.570Z,23.21
2023-04-18T07:41:18.420Z,23.22
2023-04-18T07:42:18.425Z,23.22
2023-04-18T07:43:19.809Z,23.23
2023-04-18T07:44:18.384Z,23.23
2023-04-18T07:45:18.599Z,23.24
2023-04-18T07:46:18.609Z,23.24
2023-04-18T07:47:22.456Z,23.25
2023-04-18T07:48:18.385Z,23.25
2023-04-18T07:49:18.314Z,23.27
2023-04-18T07:50:18.299Z,23.29
2023-04-18T07:51:18.247Z,23.31
2023-04-18T07:52:18.224Z,23.32
2023-04-18T07:53:18.184Z,23.33
2023-04-18T07:54:18.173Z,23.36
2023-04-18T07:55:18.153Z,23.37
2023-04-18T07:56:18.127Z,23.39
2023-04-18T07:57:18.073Z,23.40
2023-04-18T07:58:18.035Z,23.42
2023-04-18T07:59:17.994Z,23.43
2023-04-18T08:00:17.981Z,23.44
2023-04-18T08:01:17.964Z,23.45
2023-04-18T08:02:18.021Z,23.46
2023-04-18T08:03:18.066Z,23.46
2023-04-18T08:04:18.155Z,23.46
2023-04-18T08:05:17.867Z,23.45
2023-04-18T08:06:17.881Z,23.44
2023-04-18T08:07:17.792Z,23.41
2023-04-18T08:08:17.804Z,23.40
2023-04-18T08:09:17.752Z,23.38
2023-04-18T08:10:17.746Z,23.36
2023-04-18T08:11:17.687Z,23.34
2023-04-18T08:12:17.659Z,23.32
2023-04-18T08:13:17.642Z,23.30
2023-04-18T08:14:17.667Z,23.27
2023-04-18T08:15:17.623Z,23.26
2023-04-18T08:16:17.809Z,23.24
2023-04-18T08:17:17.575Z,23.23
2023-04-18T08:18:17.555Z,23.23
2023-04-18T08:19:17.502Z,23.23
2023-04-18T08:20:17.586Z,23.22
2023-04-18T08:21:17.465Z,23.22
2023-04-18T08:22:17.416Z,23.22
2023-04-18T08:23:17.420Z,23.22
2023-04-18T08:24:17.402Z,23.23
2023-04-18T08:25:17.357Z,23.23
2023-04-18T08:26:17.344Z,23.24
2023-04-18T08:27:17.312Z,23.24
2023-04-18T08:28:17.293Z,23.24
2023-04-18T08:29:17.269Z,23.26
2023-04-18T08:30:17.208Z,23.25
2023-04-18T08:31:17.285Z,23.26
2023-04-18T08:32:17.227Z,23.29
2023-04-18T08:33:17.220Z,23.30
2023-04-18T08:34:17.159Z,23.32
2023-04-18T08:35:17.122Z,23.33
2023-04-18T08:36:17.214Z,23.34
2023-04-18T08:37:17.098Z,23.34
2023-04-18T08:38:17.053Z,23.33
2023-04-18T08:39:17.043Z,23.31
2023-04-18T08:40:17.015Z,23.28
2023-04-18T08:41:17.150Z,23.25
2023-04-18T08:42:16.959Z,23.23
2023-04-18T08:43:16.906Z,23.21
2023-04-18T08:44:16.894Z,23.12
2023-04-18T08:45:16.853Z,23.02
2023-04-18T08:46:17.197Z,22.81
2023-04-18T08:47:16.806Z,22.64
2023-04-18T08:48:16.816Z,22.58
2023-04-18T08:49:16.941Z,22.58
2023-04-18T08:50:16.850Z,22.59
2023-04-18T08:51:17.128Z,22.60
2023-04-18T08:52:16.944Z,22.57
2023-04-18T08:53:18.681Z,22.60
2023-04-18T08:54:16.961Z,22.58
2023-04-18T08:55:17.103Z,22.60
2023-04-18T08:56:17.105Z,22.61
2023-04-18T08:57:17.144Z,22.63
2023-04-18T08:58:17.175Z,22.62
2023-04-18T08:59:17.214Z,22.61
2023-04-18T09:00:17.276Z,22.60
2023-04-18T09:01:17.368Z,22.59
2023-04-18T09:02:17.354Z,22.58
2023-04-18T09:03:17.424Z,22.59
2023-04-18T09:04:17.494Z,22.59
2023-04-18T09:05:17.439Z,22.59
2023-04-18T09:06:17.527Z,22.59
2023-04-18T09:07:17.537Z,22.58
2023-04-18T09:08:17.585Z,22.58
2023-04-18T09:09:17.615Z,22.58
2023-04-18T09:10:17.651Z,22.59
2023-04-18T09:11:18.147Z,22.60
2023-04-18T09:12:17.731Z,22.60
2023-04-18T09:13:17.743Z,22.62
2023-04-18T09:14:17.780Z,22.64
2023-04-18T09:15:17.761Z,22.65
2023-04-18T09:16:17.801Z,22.65
2023-04-18T09:17:17.784Z,22.64
2023-04-18T09:18:17.759Z,22.65
2023-04-18T09:19:17.962Z,22.65
2023-04-18T09:20:17.753Z,22.66
2023-04-18T09:21:17.773Z,22.66
2023-04-18T09:22:17.755Z,22.65
2023-04-18T09:23:17.729Z,22.66
2023-04-18T09:24:17.715Z,22.65
2023-04-18T09:25:17.717Z,22.66
2023-04-18T09:26:18.134Z,22.67
2023-04-18T09:27:17.789Z,22.67
2023-04-18T09:28:17.803Z,22.68
2023-04-18T09:29:17.826Z,22.69
2023-04-18T09:30:17.826Z,22.70
2023-04-18T09:31:17.885Z,22.70
2023-04-18T09:32:17.847Z,22.71
2023-04-18T09:33:17.837Z,22.70
2023-04-18T09:34:17.865Z,22.71
2023-04-18T09:35:17.869Z,22.72
2023-04-18T09:36:17.903Z,22.72
2023-04-18T09:37:17.913Z,22.73
2023-04-18T09:38:17.921Z,22.74
2023-04-18T09:39:17.948Z,22.74
2023-04-18T09:40:17.956Z,22.76
2023-04-18T09:41:21.184Z,22.76
2023-04-18T09:42:17.925Z,22.75
2023-04-18T09:43:17.915Z,22.70
2023-04-18T09:44:17.985Z,22.71
2023-04-18T09:45:17.848Z,22.72
2023-04-18T09:46:18.216Z,22.73
2023-04-18T09:47:17.738Z,22.75
2023-04-18T09:48:17.753Z,22.80
2023-04-18T09:49:17.884Z,22.84
2023-04-18T09:50:17.648Z,22.88
2023-04-18T09:51:17.669Z,22.91
2023-04-18T09:52:17.573Z,22.94
2023-04-18T09:53:18.868Z,22.98
2023-04-18T09:54:17.602Z,23.00
2023-04-18T09:55:17.489Z,23.03
2023-04-18T09:56:17.440Z,23.06
2023-04-18T09:57:17.373Z,23.10
2023-04-18T09:58:17.335Z,23.13
2023-04-18T09:59:18.146Z,23.16
2023-04-18T10:00:17.462Z,23.20
2023-04-18T10:01:17.390Z,23.22
2023-04-18T10:02:17.385Z,23.24
2023-04-18T10:03:17.354Z,23.27
2023-04-18T10:04:17.497Z,23.29
2023-04-18T10:05:19.554Z,23.30
2023-04-18T10:06:17.272Z,23.32
2023-04-18T10:07:17.226Z,23.33
2023-04-18T10:08:17.169Z,23.34
2023-04-18T10:09:17.172Z,23.35
2023-04-18T10:10:17.090Z,23.36
2023-04-18T10:11:18.600Z,23.37
2023-04-18T10:12:17.017Z,23.37
2023-04-18T10:13:16.944Z,23.39
2023-04-18T10:14:17.159Z,23.41
2023-04-18T10:15:16.891Z,23.42
2023-04-18T10:16:16.936Z,23.44
2023-04-18T10:17:16.779Z,23.46
2023-04-18T10:18:16.863Z,23.47
2023-04-18T10:19:16.713Z,23.48
2023-04-18T10:20:16.641Z,23.50
2023-04-18T10:21:16.602Z,23.51
2023-04-18T10:22:16.534Z,23.53
2023-04-18T10:23:16.525Z,23.54
2023-04-18T10:24:16.483Z,23.56
2023-04-18T10:25:16.422Z,23.57
2023-04-18T10:26:16.672Z,23.58
2023-04-18T10:27:16.346Z,23.60
2023-04-18T10:28:16.302Z,23.60
2023-04-18T10:29:16.266Z,23.61
2023-04-18T10:30:16.224Z,23.62
2023-04-18T10:31:16.264Z,23.63
2023-04-18T10:32:16.143Z,23.64
2023-04-18T10:33:27.862Z,23.64
2023-04-18T10:34:17.057Z,23.64
2023-04-18T10:35:16.013Z,23.63
2023-04-18T10:36:16.186Z,23.64
2023-04-18T10:37:15.923Z,23.64
2023-04-18T10:38:15.889Z,23.62
2023-04-18T10:39:15.822Z,23.61
2023-04-18T10:40:15.779Z,23.60
2023-04-18T10:41:16.165Z,23.60
2023-04-18T10:42:15.710Z,23.60
2023-04-18T10:43:15.667Z,23.60
2023-04-18T10:44:16.213Z,23.57
2023-04-18T10:45:15.563Z,23.58
2023-04-18T10:46:30.508Z,23.59
2023-04-18T10:47:16.532Z,23.59
2023-04-18T10:48:15.437Z,23.61
2023-04-18T10:49:15.586Z,23.54
2023-04-18T10:50:15.386Z,23.48
2023-04-18T10:51:15.323Z,23.41
2023-04-18T10:52:15.286Z,23.35
2023-04-18T10:53:15.220Z,23.28
2023-04-18T10:54:15.298Z,23.21
2023-04-18T10:55:15.153Z,23.06
2023-04-18T10:56:15.210Z,22.96
2023-04-18T10:57:15.290Z,22.93
2023-04-18T10:58:15.116Z,22.92
2023-04-18T10:59:15.149Z,22.88
2023-04-18T11:00:15.536Z,22.87
2023-04-18T11:01:15.246Z,22.83
2023-04-18T11:02:15.307Z,22.79
2023-04-18T11:03:15.352Z,22.81
2023-04-18T11:04:15.790Z,22.82
2023-04-18T11:05:15.372Z,22.82
2023-04-18T11:06:15.406Z,22.81
2023-04-18T11:07:15.484Z,22.81
2023-04-18T11:08:15.504Z,22.79
2023-04-18T11:09:15.544Z,22.75
2023-04-18T11:10:15.617Z,22.73
2023-04-18T11:11:15.638Z,22.72
2023-04-18T11:12:15.666Z,22.71
2023-04-18T11:13:15.734Z,22.71
2023-04-18T11:14:15.886Z,22.75
2023-04-18T11:15:15.811Z,22.79
2023-04-18T11:16:15.918Z,22.81
2023-04-18T11:17:15.939Z,22.83
2023-04-18T11:18:16.007Z,22.82
2023-04-18T11:19:15.979Z,22.84
2023-04-18T11:20:16.055Z,22.83
2023-04-18T11:21:16.049Z,22.81
2023-04-18T11:22:16.193Z,22.84
2023-04-18T11:23:16.118Z,22.87
2023-04-18T11:24:16.281Z,22.89
2023-04-18T11:25:16.211Z,22.88
2023-04-18T11:26:16.240Z,22.90
2023-04-18T11:27:16.700Z,22.95
2023-04-18T11:28:16.262Z,23.01
2023-04-18T11:29:16.321Z,23.06
2023-04-18T11:30:16.364Z,23.10
2023-04-18T11:31:16.337Z,23.14
2023-04-18T11:32:16.818Z,23.19
2023-04-18T11:33:16.431Z,23.21
2023-04-18T11:34:16.395Z,23.23
2023-04-18T11:35:16.399Z,23.24
2023-04-18T11:36:16.356Z,23.26
2023-04-18T11:37:16.680Z,23.27
2023-04-18T11:38:16.371Z,23.27
2023-04-18T11:39:16.326Z,23.28
2023-04-18T11:40:16.335Z,23.28
2023-04-18T11:41:16.343Z,23.29
2023-04-18T11:42:16.354Z,23.28
2023-04-18T11:43:16.331Z,23.27
2023-04-18T11:44:16.349Z,23.26
2023-04-18T11:45:16.325Z,23.25
2023-04-18T11:46:16.375Z,23.24
2023-04-18T11:47:16.373Z,23.24
2023-04-18T11:48:16.362Z,23.22
2023-04-18T11:49:16.359Z,23.21
2023-04-18T11:50:16.435Z,23.21
2023-04-18T11:51:16.387Z,23.20
2023-04-18T11:52:16.378Z,23.19
2023-04-18T11:53:16.397Z,23.18
2023-04-18T11:54:16.385Z,23.18
2023-04-18T11:55:16.393Z,23.16
2023-04-18T11:56:16.428Z,23.14
2023-04-18T11:57:16.690Z,23.14
2023-04-18T11:58:16.444Z,23.14
2023-04-18T11:59:16.444Z,23.14
2023-04-18T12:00:16.494Z,23.14
2023-04-18T12:01:16.478Z,23.14
2023-04-18T12:02:17.180Z,23.15
2023-04-18T12:03:16.820Z,23.14
2023-04-18T12:04:17.027Z,23.14
2023-04-18T12:05:16.691Z,23.14
2023-04-18T12:06:16.604Z,23.14
2023-04-18T12:07:16.568Z,23.13
2023-04-18T12:08:16.556Z,23.14
2023-04-18T12:09:16.566Z,23.16
2023-04-18T12:10:16.612Z,23.17
2023-04-18T12:11:16.582Z,23.17
2023-04-18T12:12:16.599Z,23.14
2023-04-18T12:13:16.597Z,23.15
2023-04-18T12:14:16.609Z,23.13
2023-04-18T12:15:16.623Z,23.14
2023-04-18T12:16:16.728Z,23.16
2023-04-18T12:17:16.670Z,23.18
2023-04-18T12:18:16.656Z,23.20
2023-04-18T12:19:16.655Z,23.22
2023-04-18T12:20:16.651Z,23.23
2023-04-18T12:21:17.187Z,23.26
2023-04-18T12:22:16.698Z,23.27
2023-04-18T12:23:16.634Z,23.29
2023-04-18T12:24:16.853Z,23.30
2023-04-18T12:25:16.628Z,23.31
2023-04-18T12:26:16.612Z,23.32
2023-04-18T12:27:16.621Z,23.34
2023-04-18T12:28:16.608Z,23.34
2023-04-18T12:29:16.599Z,23.34
2023-04-18T12:30:16.588Z,23.34
2023-04-18T12:31:16.585Z,23.35
2023-04-18T12:32:16.569Z,23.35
2023-04-18T12:33:16.557Z,23.35
2023-04-18T12:34:16.549Z,23.36
2023-04-18T12:35:16.537Z,23.37
2023-04-18T12:36:16.498Z,23.37
2023-04-18T12:37:16.500Z,23.38
2023-04-18T12:38:16.514Z,23.38
2023-04-18T12:39:16.457Z,23.39
2023-04-18T12:40:16.467Z,23.39
2023-04-18T12:41:16.446Z,23.39
2023-04-18T12:42:16.430Z,23.40
2023-04-18T12:43:16.431Z,23.40
2023-04-18T12:44:16.414Z,23.40
2023-04-18T12:45:16.405Z,23.40
2023-04-18T12:46:16.418Z,23.40
2023-04-18T12:47:16.377Z,23.41
2023-04-18T12:48:16.397Z,23.41
2023-04-18T12:49:16.322Z,23.42
2023-04-18T12:50:16.398Z,23.42
2023-04-18T12:51:16.308Z,23.43
2023-04-18T12:52:16.288Z,23.43
2023-04-18T12:53:16.266Z,23.44